LTAN Airport Information

Runway Information
Runway 01L Length 10984 ft width 148 ft
Elevation 3367 ft Threshold 0 ft Heading 17
Runway 19R Length 10984 ft Width 148 ft
Elevation 3392 ft Threshold 0 ft Heading 197
Runway 01R Length 10984 ft width 148 ft
Elevation 3352 ft Threshold 0 ft Heading 17
Runway 19L Length 10984 ft Width 148 ft
Elevation 3382 ft Threshold 0 ft Heading 197
Airport Frequencies
Type APP Name APP Frequency 122.1 MHZ
Type ATIS Name ATIS Frequency 233.4 MHZ
Type GND Name GND Frequency 122.1 MHZ
Type TWR Name TWR Frequency 122.1 MHZ
Airport Navaids
Type VOR-DME Name Konya Frequency 111200 KHZ
Type NDB Name Konya Frequency 390 KHZ
Type TACAN Name Konya Frequency 114100 KHZ
Airport Weather Information & NOTAM
ADDS - METARS form results

(2016 UTC 16 July 2018)
 
METAR text: LTAN 161950Z 32016KT CAVOK 23/06 Q1013 NOSIG
Conditions at: LTAN (KONYA (TUR-AFB) , TR) observed 1950 UTC 16 July 2018
Temperature: 23.0°C (73°F)
Dewpoint: 6.0°C (43°F) [RH = 33%]
Pressure (altimeter): 29.91 inches Hg (1013.0 mb)
Winds: from the NW (320 degrees) at 18 MPH (16 knots; 8.3 m/s)
Visibility: 6 or more miles (10+ km)
Ceiling: ceiling and visibility are OK
Clouds: unknown
Weather: no significant weather observed at this time